Airfield :
LOGIN :

Register | Disclaimer

   EN    FR    IT 

 










Legend :    VFR   Marginal VFR   IFR   Intensive IFR   Very Intensive IFR
Visi :
Ceiling :
>= 8 km
>= 3000ft
5 to 8 km
1000 to 3000 ft
1500m to 5 km
500 to 1000 ft
800 to 1500m
200 to 500 ft
< 800m
< 200 ft
Symbols :   Thunderstorms  Fog  Heavy snow  Heavy precipitations  Wind > 20 kt
SIGMETs :     Misc.  Thunderstorms  Icing  Turbulence  Mountain Waves  Volcanic Ashes






- Airport Elevation : 22 ft
- IATA code : TUN


DTTA - Tunis Carthage

CURRENT METAR :
  • 080830Z 19006KT CAVOK 15/11 Q1014

EXPIRED METARs :
  • 080800Z 19004KT CAVOK 13/12 Q1013
  • 080730Z 18005KT 8000 FEW026 13/12 Q1013
  • 080700Z VRB02KT 8000 FEW026 12/11 Q1013
  • 080630Z 19001KT 8000 FEW026 10/09 Q1013

TAF AMD TAF DTTA
Valid from the 08 at 06:00 until the 09 at 06:00 UTC


080635Z 0806/0906 VRB02KT 7000 FEW026
BECMG 0807/0809 20005KT 9999 SCT030
BECMG 0816/0818 19010KT



MET'MAP, your aeronautical weather chart ! - Copyright ORBIFLY December 2007 - Disclaimer

ORBIFLY MET'MAP TEAM :

Programming & Development : Alexandra Zaïnal
Original concept : Baudouin d'Aumeries
Technical & hardware support : Manuel Goepfert
Assistance : Marc-Olivier Méhu




SOURCES & CREDITS :

   NOAA